sensor_id;sensor_type;location;lat;lon;timestamp;temperature;humidity
6538;DHT22;3302;52.508;13.454;2022-09-20T00:00:40;8.90;99.90
6538;DHT22;3302;52.508;13.454;2022-09-20T00:03:06;8.80;99.90
6538;DHT22;3302;52.508;13.454;2022-09-20T00:05:34;8.80;99.90
6538;DHT22;3302;52.508;13.454;2022-09-20T00:08:01;8.80;99.90
6538;DHT22;3302;52.508;13.454;2022-09-20T00:10:27;8.80;99.90
6538;DHT22;3302;52.508;13.454;2022-09-20T00:12:54;8.60;99.90
6538;DHT22;3302;52.508;13.454;2022-09-20T00:15:19;8.70;99.90
6538;DHT22;3302;52.508;13.454;2022-09-20T00:17:45;8.80;99.90
6538;DHT22;3302;52.508;13.454;2022-09-20T00:20:11;8.80;99.90
6538;DHT22;3302;52.508;13.454;2022-09-20T00:22:36;8.70;99.90
6538;DHT22;3302;52.508;13.454;2022-09-20T00:25:02;8.70;99.90
6538;DHT22;3302;52.508;13.454;2022-09-20T00:27:28;8.70;99.90
6538;DHT22;3302;52.508;13.454;2022-09-20T00:29:54;8.70;99.90
6538;DHT22;3302;52.508;13.454;2022-09-20T00:32:19;8.70;99.90
6538;DHT22;3302;52.508;13.454;2022-09-20T00:34:45;8.70;99.90
6538;DHT22;3302;52.508;13.454;2022-09-20T00:37:39;8.60;99.90
6538;DHT22;3302;52.508;13.454;2022-09-20T00:40:10;8.70;99.90
6538;DHT22;3302;52.508;13.454;2022-09-20T00:42:36;8.60;99.90
6538;DHT22;3302;52.508;13.454;2022-09-20T00:52:48;8.60;99.90
6538;DHT22;3302;52.508;13.454;2022-09-20T00:55:15;8.60;99.90
6538;DHT22;3302;52.508;13.454;2022-09-20T00:57:43;8.50;99.90
6538;DHT22;3302;52.508;13.454;2022-09-20T01:00:10;8.60;99.90
6538;DHT22;3302;52.508;13.454;2022-09-20T01:02:41;8.50;99.90
6538;DHT22;3302;52.508;13.454;2022-09-20T01:05:08;8.60;99.90
6538;DHT22;3302;52.508;13.454;2022-09-20T01:07:35;8.60;99.90
6538;DHT22;3302;52.508;13.454;2022-09-20T01:10:01;8.50;99.90
6538;DHT22;3302;52.508;13.454;2022-09-20T01:12:29;8.50;99.90
6538;DHT22;3302;52.508;13.454;2022-09-20T01:14:57;8.50;99.90
6538;DHT22;3302;52.508;13.454;2022-09-20T01:17:25;8.40;99.90
6538;DHT22;3302;52.508;13.454;2022-09-20T01:19:57;8.50;99.90
6538;DHT22;3302;52.508;13.454;2022-09-20T01:27:56;8.50;99.90
6538;DHT22;3302;52.508;13.454;2022-09-20T01:30:40;8.30;99.90
6538;DHT22;3302;52.508;13.454;2022-09-20T01:33:27;8.40;99.90
6538;DHT22;3302;52.508;13.454;2022-09-20T01:35:58;8.40;99.90
6538;DHT22;3302;52.508;13.454;2022-09-20T01:41:03;8.40;99.90
6538;DHT22;3302;52.508;13.454;2022-09-20T01:48:49;8.40;99.90
6538;DHT22;3302;52.508;13.454;2022-09-20T01:51:35;8.50;99.90
6538;DHT22;3302;52.508;13.454;2022-09-20T02:00:11;8.50;99.90
6538;DHT22;3302;52.508;13.454;2022-09-20T02:05:42;8.60;99.90
6538;DHT22;3302;52.508;13.454;2022-09-20T02:11:14;8.60;99.90
6538;DHT22;3302;52.508;13.454;2022-09-20T02:16:43;8.60;99.90
6538;DHT22;3302;52.508;13.454;2022-09-20T02:22:28;8.60;99.90
6538;DHT22;3302;52.508;13.454;2022-09-20T02:30:58;8.60;99.90
6538;DHT22;3302;52.508;13.454;2022-09-20T02:36:50;8.70;99.90
6538;DHT22;3302;52.508;13.454;2022-09-20T02:39:26;8.80;99.90
6538;DHT22;3302;52.508;13.454;2022-09-20T02:45:03;8.80;99.90
6538;DHT22;3302;52.508;13.454;2022-09-20T02:47:42;8.80;99.90
6538;DHT22;3302;52.508;13.454;2022-09-20T02:50:20;8.90;99.90
6538;DHT22;3302;52.508;13.454;2022-09-20T02:56:30;8.90;99.90
6538;DHT22;3302;52.508;13.454;2022-09-20T03:02:03;9.00;99.90
6538;DHT22;3302;52.508;13.454;2022-09-20T03:04:54;8.90;99.90
6538;DHT22;3302;52.508;13.454;2022-09-20T03:07:40;8.90;99.90
6538;DHT22;3302;52.508;13.454;2022-09-20T03:10:27;8.90;99.90
6538;DHT22;3302;52.508;13.454;2022-09-20T03:13:40;8.90;99.90
6538;DHT22;3302;52.508;13.454;2022-09-20T03:19:16;8.90;99.90
6538;DHT22;3302;52.508;13.454;2022-09-20T03:27:49;8.90;99.90
6538;DHT22;3302;52.508;13.454;2022-09-20T03:30:35;9.00;99.90
6538;DHT22;3302;52.508;13.454;2022-09-20T03:36:28;8.90;99.90
6538;DHT22;3302;52.508;13.454;2022-09-20T03:44:45;9.00;99.90
6538;DHT22;3302;52.508;13.454;2022-09-20T03:55:24;9.10;99.90
6538;DHT22;3302;52.508;13.454;2022-09-20T04:04:18;9.20;99.90
6538;DHT22;3302;52.508;13.454;2022-09-20T04:06:52;9.20;99.90
6538;DHT22;3302;52.508;13.454;2022-09-20T04:12:29;9.30;99.90
6538;DHT22;3302;52.508;13.454;2022-09-20T04:15:28;9.30;99.90
6538;DHT22;3302;52.508;13.454;2022-09-20T04:18:14;9.20;99.90
6538;DHT22;3302;52.508;13.454;2022-09-20T04:23:38;9.20;99.90
6538;DHT22;3302;52.508;13.454;2022-09-20T04:26:06;9.30;99.90
6538;DHT22;3302;52.508;13.454;2022-09-20T04:28:39;9.30;99.90
6538;DHT22;3302;52.508;13.454;2022-09-20T04:33:49;9.30;99.90
6538;DHT22;3302;52.508;13.454;2022-09-20T04:36:29;9.30;99.90
6538;DHT22;3302;52.508;13.454;2022-09-20T04:39:10;9.20;99.90
6538;DHT22;3302;52.508;13.454;2022-09-20T05:00:47;9.20;99.90
6538;DHT22;3302;52.508;13.454;2022-09-20T05:03:47;9.20;99.90
6538;DHT22;3302;52.508;13.454;2022-09-20T05:23:23;9.30;99.90
6538;DHT22;3302;52.508;13.454;2022-09-20T05:26:13;9.30;99.90
6538;DHT22;3302;52.508;13.454;2022-09-20T05:31:51;9.30;99.90
6538;DHT22;3302;52.508;13.454;2022-09-20T05:34:43;9.40;99.90
6538;DHT22;3302;52.508;13.454;2022-09-20T05:43:12;9.50;99.90
6538;DHT22;3302;52.508;13.454;2022-09-20T05:46:03;9.50;99.90
6538;DHT22;3302;52.508;13.454;2022-09-20T05:49:09;9.50;99.90
6538;DHT22;3302;52.508;13.454;2022-09-20T05:51:55;9.60;99.90
6538;DHT22;3302;52.508;13.454;2022-09-20T06:00:18;9.70;99.90
6538;DHT22;3302;52.508;13.454;2022-09-20T06:03:02;9.80;99.90
6538;DHT22;3302;52.508;13.454;2022-09-20T06:09:02;10.00;99.90
6538;DHT22;3302;52.508;13.454;2022-09-20T06:15:10;10.20;99.90
6538;DHT22;3302;52.508;13.454;2022-09-20T06:17:47;10.10;99.90
6538;DHT22;3302;52.508;13.454;2022-09-20T06:20:19;10.10;99.90
6538;DHT22;3302;52.508;13.454;2022-09-20T06:22:52;10.10;99.90
6538;DHT22;3302;52.508;13.454;2022-09-20T06:25:29;10.00;99.90
6538;DHT22;3302;52.508;13.454;2022-09-20T06:28:04;10.00;99.90
6538;DHT22;3302;52.508;13.454;2022-09-20T06:30:38;10.10;99.90
6538;DHT22;3302;52.508;13.454;2022-09-20T06:35:40;10.10;99.90
6538;DHT22;3302;52.508;13.454;2022-09-20T06:41:13;10.20;99.90
6538;DHT22;3302;52.508;13.454;2022-09-20T06:43:57;10.20;99.90
6538;DHT22;3302;52.508;13.454;2022-09-20T06:46:31;10.20;99.90
6538;DHT22;3302;52.508;13.454;2022-09-20T06:48:57;10.30;99.90
6538;DHT22;3302;52.508;13.454;2022-09-20T06:51:25;10.40;99.90
6538;DHT22;3302;52.508;13.454;2022-09-20T06:53:53;10.40;99.90
6538;DHT22;3302;52.508;13.454;2022-09-20T06:56:22;10.50;99.90
6538;DHT22;3302;52.508;13.454;2022-09-20T06:58:49;10.60;99.90
6538;DHT22;3302;52.508;13.454;2022-09-20T07:01:18;10.60;99.90
6538;DHT22;3302;52.508;13.454;2022-09-20T07:03:44;10.60;99.90
6538;DHT22;3302;52.508;13.454;2022-09-20T07:06:10;10.50;99.90
6538;DHT22;3302;52.508;13.454;2022-09-20T07:08:36;10.50;99.90
6538;DHT22;3302;52.508;13.454;2022-09-20T07:11:06;10.40;99.90
6538;DHT22;3302;52.508;13.454;2022-09-20T07:13:34;10.50;99.90
6538;DHT22;3302;52.508;13.454;2022-09-20T07:16:05;10.40;99.90
6538;DHT22;3302;52.508;13.454;2022-09-20T07:18:31;10.30;99.90
6538;DHT22;3302;52.508;13.454;2022-09-20T07:20:59;10.40;99.90
6538;DHT22;3302;52.508;13.454;2022-09-20T07:23:25;10.40;99.90
6538;DHT22;3302;52.508;13.454;2022-09-20T07:25:52;10.40;99.90
6538;DHT22;3302;52.508;13.454;2022-09-20T07:28:18;10.40;99.90
6538;DHT22;3302;52.508;13.454;2022-09-20T07:30:46;10.40;99.90
6538;DHT22;3302;52.508;13.454;2022-09-20T07:33:13;10.40;99.90
6538;DHT22;3302;52.508;13.454;2022-09-20T07:35:44;10.40;99.90
6538;DHT22;3302;52.508;13.454;2022-09-20T07:38:11;10.50;99.90
6538;DHT22;3302;52.508;13.454;2022-09-20T07:40:37;10.60;99.90
6538;DHT22;3302;52.508;13.454;2022-09-20T07:43:03;10.70;99.90
6538;DHT22;3302;52.508;13.454;2022-09-20T07:45:29;10.70;99.90
6538;DHT22;3302;52.508;13.454;2022-09-20T07:47:58;10.70;99.90
6538;DHT22;3302;52.508;13.454;2022-09-20T07:50:24;10.90;99.90
6538;DHT22;3302;52.508;13.454;2022-09-20T07:52:50;11.00;99.90
6538;DHT22;3302;52.508;13.454;2022-09-20T07:55:16;11.10;99.90
6538;DHT22;3302;52.508;13.454;2022-09-20T07:57:42;11.10;99.90
6538;DHT22;3302;52.508;13.454;2022-09-20T08:00:08;11.20;99.90
6538;DHT22;3302;52.508;13.454;2022-09-20T08:02:35;11.40;99.90
6538;DHT22;3302;52.508;13.454;2022-09-20T08:05:02;11.50;99.90
6538;DHT22;3302;52.508;13.454;2022-09-20T08:07:29;11.60;99.90
6538;DHT22;3302;52.508;13.454;2022-09-20T08:09:55;11.60;99.90
6538;DHT22;3302;52.508;13.454;2022-09-20T08:12:20;11.80;99.90
6538;DHT22;3302;52.508;13.454;2022-09-20T08:14:47;11.70;99.90
6538;DHT22;3302;52.508;13.454;2022-09-20T08:17:13;11.80;99.90
6538;DHT22;3302;52.508;13.454;2022-09-20T08:19:39;11.90;99.90
6538;DHT22;3302;52.508;13.454;2022-09-20T08:22:05;11.90;99.90
6538;DHT22;3302;52.508;13.454;2022-09-20T08:24:31;12.00;99.90
6538;DHT22;3302;52.508;13.454;2022-09-20T08:26:57;12.20;99.90
6538;DHT22;3302;52.508;13.454;2022-09-20T08:29:24;12.20;99.90
6538;DHT22;3302;52.508;13.454;2022-09-20T08:31:50;12.30;99.90
6538;DHT22;3302;52.508;13.454;2022-09-20T08:34:17;12.40;99.90
6538;DHT22;3302;52.508;13.454;2022-09-20T08:36:44;12.40;99.90
6538;DHT22;3302;52.508;13.454;2022-09-20T08:39:16;12.30;99.90
6538;DHT22;3302;52.508;13.454;2022-09-20T08:41:47;12.50;99.90
6538;DHT22;3302;52.508;13.454;2022-09-20T08:44:26;12.70;99.90
6538;DHT22;3302;52.508;13.454;2022-09-20T08:47:06;12.70;99.90
6538;DHT22;3302;52.508;13.454;2022-09-20T08:49:34;12.70;99.90
6538;DHT22;3302;52.508;13.454;2022-09-20T08:52:01;12.80;99.90
6538;DHT22;3302;52.508;13.454;2022-09-20T08:54:30;12.80;99.90
6538;DHT22;3302;52.508;13.454;2022-09-20T08:57:00;12.90;99.90
6538;DHT22;3302;52.508;13.454;2022-09-20T08:59:30;12.90;99.90
6538;DHT22;3302;52.508;13.454;2022-09-20T09:01:56;12.70;99.90
6538;DHT22;3302;52.508;13.454;2022-09-20T09:04:27;13.10;99.90
6538;DHT22;3302;52.508;13.454;2022-09-20T09:06:56;13.20;99.90
6538;DHT22;3302;52.508;13.454;2022-09-20T09:09:24;13.20;99.90
6538;DHT22;3302;52.508;13.454;2022-09-20T09:11:52;13.30;99.90
6538;DHT22;3302;52.508;13.454;2022-09-20T09:14:29;13.20;99.90
6538;DHT22;3302;52.508;13.454;2022-09-20T09:17:21;13.10;99.90
6538;DHT22;3302;52.508;13.454;2022-09-20T09:20:19;13.20;99.90
6538;DHT22;3302;52.508;13.454;2022-09-20T09:22:59;13.40;99.90
6538;DHT22;3302;52.508;13.454;2022-09-20T09:25:27;13.50;99.90
6538;DHT22;3302;52.508;13.454;2022-09-20T09:30:45;13.70;99.90
6538;DHT22;3302;52.508;13.454;2022-09-20T09:33:26;13.70;99.90
6538;DHT22;3302;52.508;13.454;2022-09-20T09:36:04;13.90;99.90
6538;DHT22;3302;52.508;13.454;2022-09-20T09:38:34;14.10;99.90
6538;DHT22;3302;52.508;13.454;2022-09-20T09:41:03;14.10;99.90
6538;DHT22;3302;52.508;13.454;2022-09-20T09:43:32;14.20;99.90
6538;DHT22;3302;52.508;13.454;2022-09-20T09:46:20;14.20;99.90
6538;DHT22;3302;52.508;13.454;2022-09-20T09:48:47;14.00;99.90
6538;DHT22;3302;52.508;13.454;2022-09-20T09:51:29;14.10;99.90
6538;DHT22;3302;52.508;13.454;2022-09-20T09:53:55;14.10;99.90
6538;DHT22;3302;52.508;13.454;2022-09-20T09:57:30;14.30;99.90
6538;DHT22;3302;52.508;13.454;2022-09-20T09:59:52;14.40;99.90
6538;DHT22;3302;52.508;13.454;2022-09-20T10:02:53;14.10;99.90
6538;DHT22;3302;52.508;13.454;2022-09-20T10:08:27;14.10;99.90
6538;DHT22;3302;52.508;13.454;2022-09-20T10:13:56;14.30;99.90
6538;DHT22;3302;52.508;13.454;2022-09-20T10:22:15;14.30;99.90
6538;DHT22;3302;52.508;13.454;2022-09-20T10:24:47;14.20;99.90
6538;DHT22;3302;52.508;13.454;2022-09-20T10:27:37;14.50;99.90
6538;DHT22;3302;52.508;13.454;2022-09-20T10:30:17;14.70;99.90
6538;DHT22;3302;52.508;13.454;2022-09-20T10:33:05;14.80;99.90
6538;DHT22;3302;52.508;13.454;2022-09-20T10:38:50;14.60;99.90
6538;DHT22;3302;52.508;13.454;2022-09-20T10:41:31;14.60;99.90
6538;DHT22;3302;52.508;13.454;2022-09-20T10:47:14;14.50;99.90
6538;DHT22;3302;52.508;13.454;2022-09-20T11:08:51;13.20;99.90
6538;DHT22;3302;52.508;13.454;2022-09-20T11:11:28;13.30;99.90
6538;DHT22;3302;52.508;13.454;2022-09-20T11:14:19;13.40;99.90
6538;DHT22;3302;52.508;13.454;2022-09-20T11:17:04;13.20;99.90
6538;DHT22;3302;52.508;13.454;2022-09-20T11:19:59;12.20;99.90
6538;DHT22;3302;52.508;13.454;2022-09-20T11:22:33;10.70;99.90
6538;DHT22;3302;52.508;13.454;2022-09-20T11:25:11;10.30;99.90
6538;DHT22;3302;52.508;13.454;2022-09-20T11:31:00;10.30;99.90
6538;DHT22;3302;52.508;13.454;2022-09-20T11:33:30;10.20;99.90
6538;DHT22;3302;52.508;13.454;2022-09-20T11:36:00;10.30;99.90
6538;DHT22;3302;52.508;13.454;2022-09-20T11:43:47;10.30;99.90
6538;DHT22;3302;52.508;13.454;2022-09-20T11:46:20;10.30;99.90
6538;DHT22;3302;52.508;13.454;2022-09-20T11:48:54;10.20;99.90
6538;DHT22;3302;52.508;13.454;2022-09-20T11:51:47;9.90;99.90
6538;DHT22;3302;52.508;13.454;2022-09-20T11:54:35;10.00;99.90
6538;DHT22;3302;52.508;13.454;2022-09-20T11:57:05;10.10;99.90
6538;DHT22;3302;52.508;13.454;2022-09-20T11:59:38;10.10;99.90
6538;DHT22;3302;52.508;13.454;2022-09-20T12:02:21;10.30;99.90
6538;DHT22;3302;52.508;13.454;2022-09-20T12:04:47;10.00;99.90
6538;DHT22;3302;52.508;13.454;2022-09-20T12:07:46;10.10;99.90
6538;DHT22;3302;52.508;13.454;2022-09-20T12:10:26;10.40;99.90
6538;DHT22;3302;52.508;13.454;2022-09-20T12:13:06;10.50;99.90
6538;DHT22;3302;52.508;13.454;2022-09-20T12:15:40;10.40;99.90
6538;DHT22;3302;52.508;13.454;2022-09-20T12:29:03;10.90;99.90
6538;DHT22;3302;52.508;13.454;2022-09-20T12:31:38;11.10;99.90
6538;DHT22;3302;52.508;13.454;2022-09-20T12:34:32;11.10;99.90
6538;DHT22;3302;52.508;13.454;2022-09-20T12:39:51;11.30;99.90
6538;DHT22;3302;52.508;13.454;2022-09-20T12:47:23;11.50;99.90
6538;DHT22;3302;52.508;13.454;2022-09-20T12:49:57;11.40;99.90
6538;DHT22;3302;52.508;13.454;2022-09-20T13:00:34;11.10;99.90
6538;DHT22;3302;52.508;13.454;2022-09-20T13:05:41;11.20;99.90
6538;DHT22;3302;52.508;13.454;2022-09-20T13:08:28;11.20;99.90
6538;DHT22;3302;52.508;13.454;2022-09-20T13:16:26;11.60;99.90
6538;DHT22;3302;52.508;13.454;2022-09-20T13:19:22;11.40;99.90
6538;DHT22;3302;52.508;13.454;2022-09-20T13:24:24;11.00;99.90
6538;DHT22;3302;52.508;13.454;2022-09-20T13:26:53;11.20;99.90
6538;DHT22;3302;52.508;13.454;2022-09-20T13:29:33;11.30;99.90
6538;DHT22;3302;52.508;13.454;2022-09-20T13:37:29;11.10;99.90
6538;DHT22;3302;52.508;13.454;2022-09-20T13:39:55;11.10;99.90
6538;DHT22;3302;52.508;13.454;2022-09-20T13:42:21;11.30;99.90
6538;DHT22;3302;52.508;13.454;2022-09-20T13:44:48;11.20;99.90
6538;DHT22;3302;52.508;13.454;2022-09-20T13:47:30;11.10;99.90
6538;DHT22;3302;52.508;13.454;2022-09-20T13:50:16;11.40;99.90
6538;DHT22;3302;52.508;13.454;2022-09-20T13:52:45;11.60;99.90
6538;DHT22;3302;52.508;13.454;2022-09-20T13:55:23;11.80;99.90
6538;DHT22;3302;52.508;13.454;2022-09-20T13:57:52;12.00;99.90
6538;DHT22;3302;52.508;13.454;2022-09-20T14:00:18;11.60;99.90
6538;DHT22;3302;52.508;13.454;2022-09-20T14:02:47;11.70;99.90
6538;DHT22;3302;52.508;13.454;2022-09-20T14:05:18;11.70;99.90
6538;DHT22;3302;52.508;13.454;2022-09-20T14:07:45;11.90;99.90
6538;DHT22;3302;52.508;13.454;2022-09-20T14:13:00;11.90;99.90
6538;DHT22;3302;52.508;13.454;2022-09-20T14:15:32;12.10;99.90
6538;DHT22;3302;52.508;13.454;2022-09-20T14:18:00;12.20;99.90
6538;DHT22;3302;52.508;13.454;2022-09-20T14:20:29;11.80;99.90
6538;DHT22;3302;52.508;13.454;2022-09-20T14:22:55;12.10;99.90
6538;DHT22;3302;52.508;13.454;2022-09-20T14:25:23;12.20;99.90
6538;DHT22;3302;52.508;13.454;2022-09-20T14:28:24;12.20;99.90
6538;DHT22;3302;52.508;13.454;2022-09-20T14:30:49;12.30;99.90
6538;DHT22;3302;52.508;13.454;2022-09-20T14:33:18;12.10;99.90
6538;DHT22;3302;52.508;13.454;2022-09-20T14:35:47;12.00;99.90
6538;DHT22;3302;52.508;13.454;2022-09-20T14:38:14;12.00;99.90
6538;DHT22;3302;52.508;13.454;2022-09-20T14:40:43;12.10;99.90
6538;DHT22;3302;52.508;13.454;2022-09-20T14:43:24;11.90;99.90
6538;DHT22;3302;52.508;13.454;2022-09-20T14:45:53;12.20;99.90
6538;DHT22;3302;52.508;13.454;2022-09-20T14:53:52;12.30;99.90
6538;DHT22;3302;52.508;13.454;2022-09-20T14:56:40;12.20;99.90
6538;DHT22;3302;52.508;13.454;2022-09-20T15:02:13;12.10;99.90
6538;DHT22;3302;52.508;13.454;2022-09-20T15:04:41;12.20;99.90
6538;DHT22;3302;52.508;13.454;2022-09-20T15:07:16;12.50;99.90
6538;DHT22;3302;52.508;13.454;2022-09-20T15:09:41;12.30;99.90
6538;DHT22;3302;52.508;13.454;2022-09-20T15:12:16;12.30;99.90
6538;DHT22;3302;52.508;13.454;2022-09-20T15:14:43;12.30;99.90
6538;DHT22;3302;52.508;13.454;2022-09-20T15:17:16;12.10;99.90
6538;DHT22;3302;52.508;13.454;2022-09-20T15:19:42;12.20;99.90
6538;DHT22;3302;52.508;13.454;2022-09-20T15:22:09;12.60;99.90
6538;DHT22;3302;52.508;13.454;2022-09-20T15:24:35;12.30;99.90
6538;DHT22;3302;52.508;13.454;2022-09-20T15:27:00;12.60;99.90
6538;DHT22;3302;52.508;13.454;2022-09-20T15:29:26;11.90;99.90
6538;DHT22;3302;52.508;13.454;2022-09-20T15:31:52;11.80;99.90
6538;DHT22;3302;52.508;13.454;2022-09-20T15:34:18;11.70;99.90
6538;DHT22;3302;52.508;13.454;2022-09-20T15:36:43;11.50;99.90
6538;DHT22;3302;52.508;13.454;2022-09-20T15:39:10;11.50;99.90
6538;DHT22;3302;52.508;13.454;2022-09-20T15:41:37;11.50;99.90
6538;DHT22;3302;52.508;13.454;2022-09-20T15:44:03;11.10;99.90
6538;DHT22;3302;52.508;13.454;2022-09-20T15:46:29;10.90;99.90
6538;DHT22;3302;52.508;13.454;2022-09-20T15:48:58;10.80;99.90
6538;DHT22;3302;52.508;13.454;2022-09-20T15:51:25;10.50;99.90
6538;DHT22;3302;52.508;13.454;2022-09-20T15:53:56;10.50;99.90
6538;DHT22;3302;52.508;13.454;2022-09-20T15:56:25;10.30;99.90
6538;DHT22;3302;52.508;13.454;2022-09-20T15:58:54;10.40;99.90
6538;DHT22;3302;52.508;13.454;2022-09-20T16:01:36;10.30;99.90
6538;DHT22;3302;52.508;13.454;2022-09-20T16:04:12;10.40;99.90
6538;DHT22;3302;52.508;13.454;2022-09-20T16:06:39;10.30;99.90
6538;DHT22;3302;52.508;13.454;2022-09-20T16:09:06;10.10;99.90
6538;DHT22;3302;52.508;13.454;2022-09-20T16:11:32;10.30;99.90
6538;DHT22;3302;52.508;13.454;2022-09-20T16:13:59;10.60;99.90
6538;DHT22;3302;52.508;13.454;2022-09-20T16:16:26;10.70;99.90
6538;DHT22;3302;52.508;13.454;2022-09-20T16:18:53;10.60;99.90
6538;DHT22;3302;52.508;13.454;2022-09-20T16:21:39;10.60;99.90
6538;DHT22;3302;52.508;13.454;2022-09-20T16:24:05;10.60;99.90
6538;DHT22;3302;52.508;13.454;2022-09-20T16:26:32;10.70;99.90
6538;DHT22;3302;52.508;13.454;2022-09-20T16:28:59;10.70;99.90
6538;DHT22;3302;52.508;13.454;2022-09-20T16:36:36;10.70;99.90
6538;DHT22;3302;52.508;13.454;2022-09-20T16:39:02;10.60;99.90
6538;DHT22;3302;52.508;13.454;2022-09-20T16:41:29;10.60;99.90
6538;DHT22;3302;52.508;13.454;2022-09-20T16:43:56;10.50;99.90
6538;DHT22;3302;52.508;13.454;2022-09-20T16:46:23;10.50;99.90
6538;DHT22;3302;52.508;13.454;2022-09-20T16:48:55;10.50;99.90
6538;DHT22;3302;52.508;13.454;2022-09-20T16:51:23;10.50;99.90
6538;DHT22;3302;52.508;13.454;2022-09-20T16:53:51;10.40;99.90
6538;DHT22;3302;52.508;13.454;2022-09-20T16:56:28;10.60;99.90
6538;DHT22;3302;52.508;13.454;2022-09-20T16:58:59;10.50;99.90
6538;DHT22;3302;52.508;13.454;2022-09-20T17:01:25;10.60;99.90
6538;DHT22;3302;52.508;13.454;2022-09-20T17:03:52;10.50;99.90
6538;DHT22;3302;52.508;13.454;2022-09-20T17:06:18;10.40;99.90
6538;DHT22;3302;52.508;13.454;2022-09-20T17:08:44;10.30;99.90
6538;DHT22;3302;52.508;13.454;2022-09-20T17:11:16;10.30;99.90
6538;DHT22;3302;52.508;13.454;2022-09-20T17:13:43;10.40;99.90
6538;DHT22;3302;52.508;13.454;2022-09-20T17:16:12;10.30;99.90
6538;DHT22;3302;52.508;13.454;2022-09-20T17:18:38;10.40;99.90
6538;DHT22;3302;52.508;13.454;2022-09-20T17:23:39;10.50;99.90
6538;DHT22;3302;52.508;13.454;2022-09-20T17:26:09;10.60;99.90
6538;DHT22;3302;52.508;13.454;2022-09-20T17:28:37;10.70;99.90
6538;DHT22;3302;52.508;13.454;2022-09-20T17:31:05;10.60;99.90
6538;DHT22;3302;52.508;13.454;2022-09-20T17:33:34;10.70;99.90
6538;DHT22;3302;52.508;13.454;2022-09-20T17:36:00;10.80;99.90
6538;DHT22;3302;52.508;13.454;2022-09-20T17:38:29;10.80;99.90
6538;DHT22;3302;52.508;13.454;2022-09-20T17:40:59;10.70;99.90
6538;DHT22;3302;52.508;13.454;2022-09-20T17:43:26;10.60;99.90
6538;DHT22;3302;52.508;13.454;2022-09-20T17:45:54;10.50;99.90
6538;DHT22;3302;52.508;13.454;2022-09-20T17:48:21;10.60;99.90
6538;DHT22;3302;52.508;13.454;2022-09-20T17:50:56;10.60;99.90
6538;DHT22;3302;52.508;13.454;2022-09-20T17:53:22;10.60;99.90
6538;DHT22;3302;52.508;13.454;2022-09-20T17:55:54;10.60;99.90
6538;DHT22;3302;52.508;13.454;2022-09-20T17:58:21;10.60;99.90
6538;DHT22;3302;52.508;13.454;2022-09-20T18:00:47;10.60;99.90
6538;DHT22;3302;52.508;13.454;2022-09-20T18:03:12;10.60;99.90
6538;DHT22;3302;52.508;13.454;2022-09-20T18:05:39;10.60;99.90
6538;DHT22;3302;52.508;13.454;2022-09-20T18:08:05;10.60;99.90
6538;DHT22;3302;52.508;13.454;2022-09-20T18:10:31;10.70;99.90
6538;DHT22;3302;52.508;13.454;2022-09-20T18:12:57;10.60;99.90
6538;DHT22;3302;52.508;13.454;2022-09-20T18:15:23;10.50;99.90
6538;DHT22;3302;52.508;13.454;2022-09-20T18:17:49;10.50;99.90
6538;DHT22;3302;52.508;13.454;2022-09-20T18:20:15;10.50;99.90
6538;DHT22;3302;52.508;13.454;2022-09-20T18:22:40;10.40;99.90
6538;DHT22;3302;52.508;13.454;2022-09-20T18:25:06;10.30;99.90
6538;DHT22;3302;52.508;13.454;2022-09-20T18:27:32;10.40;99.90
6538;DHT22;3302;52.508;13.454;2022-09-20T18:29:59;10.40;99.90
6538;DHT22;3302;52.508;13.454;2022-09-20T18:32:25;10.40;99.90
6538;DHT22;3302;52.508;13.454;2022-09-20T18:34:54;10.40;99.90
6538;DHT22;3302;52.508;13.454;2022-09-20T18:37:20;10.40;99.90
6538;DHT22;3302;52.508;13.454;2022-09-20T18:39:46;10.30;99.90
6538;DHT22;3302;52.508;13.454;2022-09-20T18:42:11;10.30;99.90
6538;DHT22;3302;52.508;13.454;2022-09-20T18:44:37;10.20;99.90
6538;DHT22;3302;52.508;13.454;2022-09-20T18:47:04;10.20;99.90
6538;DHT22;3302;52.508;13.454;2022-09-20T18:49:30;10.30;99.90
6538;DHT22;3302;52.508;13.454;2022-09-20T18:51:57;10.30;99.90
6538;DHT22;3302;52.508;13.454;2022-09-20T18:54:23;10.20;99.90
6538;DHT22;3302;52.508;13.454;2022-09-20T18:56:49;10.10;99.90
6538;DHT22;3302;52.508;13.454;2022-09-20T18:59:23;10.20;99.90
6538;DHT22;3302;52.508;13.454;2022-09-20T19:07:15;10.10;99.90
6538;DHT22;3302;52.508;13.454;2022-09-20T19:09:57;10.10;99.90
6538;DHT22;3302;52.508;13.454;2022-09-20T19:15:00;10.00;99.90
6538;DHT22;3302;52.508;13.454;2022-09-20T19:23:44;10.10;99.90
6538;DHT22;3302;52.508;13.454;2022-09-20T19:26:02;10.00;99.90
6538;DHT22;3302;52.508;13.454;2022-09-20T19:28:30;9.90;99.90
6538;DHT22;3302;52.508;13.454;2022-09-20T19:30:56;9.90;99.90
6538;DHT22;3302;52.508;13.454;2022-09-20T19:33:22;9.90;99.90
6538;DHT22;3302;52.508;13.454;2022-09-20T19:35:50;10.00;99.90
6538;DHT22;3302;52.508;13.454;2022-09-20T19:38:37;9.90;99.90
6538;DHT22;3302;52.508;13.454;2022-09-20T19:41:42;9.90;99.90
6538;DHT22;3302;52.508;13.454;2022-09-20T19:47:08;10.00;99.90
6538;DHT22;3302;52.508;13.454;2022-09-20T19:52:12;10.00;99.90
6538;DHT22;3302;52.508;13.454;2022-09-20T19:54:39;9.90;99.90
6538;DHT22;3302;52.508;13.454;2022-09-20T19:57:08;9.70;99.90
6538;DHT22;3302;52.508;13.454;2022-09-20T19:59:37;9.70;99.90
6538;DHT22;3302;52.508;13.454;2022-09-20T20:02:03;9.70;99.90
6538;DHT22;3302;52.508;13.454;2022-09-20T20:04:30;9.70;99.90
6538;DHT22;3302;52.508;13.454;2022-09-20T20:07:13;9.70;99.90
6538;DHT22;3302;52.508;13.454;2022-09-20T20:09:44;9.60;99.90
6538;DHT22;3302;52.508;13.454;2022-09-20T20:15:03;9.70;99.90
6538;DHT22;3302;52.508;13.454;2022-09-20T20:17:43;9.70;99.90
6538;DHT22;3302;52.508;13.454;2022-09-20T20:28:17;9.60;99.90
6538;DHT22;3302;52.508;13.454;2022-09-20T20:30:42;9.70;99.90
6538;DHT22;3302;52.508;13.454;2022-09-20T20:33:16;9.50;99.90
6538;DHT22;3302;52.508;13.454;2022-09-20T20:35:50;9.50;99.90
6538;DHT22;3302;52.508;13.454;2022-09-20T20:38:17;9.60;99.90
6538;DHT22;3302;52.508;13.454;2022-09-20T20:40:43;9.60;99.90
6538;DHT22;3302;52.508;13.454;2022-09-20T20:43:09;9.60;99.90
6538;DHT22;3302;52.508;13.454;2022-09-20T20:45:34;9.50;99.90
6538;DHT22;3302;52.508;13.454;2022-09-20T20:48:00;9.60;99.90
6538;DHT22;3302;52.508;13.454;2022-09-20T20:50:27;9.50;99.90
6538;DHT22;3302;52.508;13.454;2022-09-20T20:52:54;9.50;99.90
6538;DHT22;3302;52.508;13.454;2022-09-20T20:55:21;9.50;99.90
6538;DHT22;3302;52.508;13.454;2022-09-20T20:57:54;9.60;99.90
6538;DHT22;3302;52.508;13.454;2022-09-20T21:00:25;9.50;99.90
6538;DHT22;3302;52.508;13.454;2022-09-20T21:03:00;9.50;99.90
6538;DHT22;3302;52.508;13.454;2022-09-20T21:05:26;9.50;99.90
6538;DHT22;3302;52.508;13.454;2022-09-20T21:07:53;9.50;99.90
6538;DHT22;3302;52.508;13.454;2022-09-20T21:10:20;9.40;99.90
6538;DHT22;3302;52.508;13.454;2022-09-20T21:12:47;9.40;99.90
6538;DHT22;3302;52.508;13.454;2022-09-20T21:15:15;9.50;99.90
6538;DHT22;3302;52.508;13.454;2022-09-20T21:17:48;9.40;99.90
6538;DHT22;3302;52.508;13.454;2022-09-20T21:20:14;9.50;99.90
6538;DHT22;3302;52.508;13.454;2022-09-20T21:22:40;9.50;99.90